createdAt,value
2022-12-16T00:00:36.331Z,99.88
2022-12-16T00:03:24.851Z,98.53
2022-12-16T00:06:13.421Z,97.49
2022-12-16T00:09:02.531Z,96.89
2022-12-16T00:11:51.174Z,97.31
2022-12-16T00:14:40.257Z,98.77
2022-12-16T00:17:30.239Z,98.21
2022-12-16T00:20:18.700Z,98.92
2022-12-16T00:23:07.460Z,99.92
2022-12-16T00:25:56.238Z,100.00
2022-12-16T00:28:44.712Z,100.00
2022-12-16T00:31:33.493Z,100.00
2022-12-16T00:34:23.484Z,100.00
2022-12-16T00:37:13.322Z,100.00
2022-12-16T00:40:01.759Z,100.00
2022-12-16T00:42:50.337Z,100.00
2022-12-16T00:45:41.065Z,100.00
2022-12-16T00:48:29.602Z,100.00
2022-12-16T00:51:19.419Z,99.63
2022-12-16T00:54:07.910Z,99.35
2022-12-16T00:56:56.398Z,99.48
2022-12-16T00:59:44.867Z,99.97
2022-12-16T01:02:33.426Z,99.84
2022-12-16T01:05:26.903Z,100.00
2022-12-16T01:08:17.186Z,100.00
2022-12-16T01:11:06.255Z,100.00
2022-12-16T01:13:55.239Z,100.00
2022-12-16T01:16:43.888Z,100.00
2022-12-16T01:19:32.399Z,100.00
2022-12-16T01:22:21.912Z,100.00
2022-12-16T01:25:13.836Z,100.00
2022-12-16T01:28:02.433Z,100.00
2022-12-16T01:30:50.891Z,100.00
2022-12-16T01:33:39.485Z,100.00
2022-12-16T01:36:28.177Z,100.00
2022-12-16T01:39:16.615Z,100.00
2022-12-16T01:42:07.058Z,100.00
2022-12-16T01:44:55.559Z,100.00
2022-12-16T01:47:44.052Z,100.00
2022-12-16T01:50:32.988Z,100.00
2022-12-16T01:53:21.589Z,100.00
2022-12-16T01:56:11.816Z,100.00
2022-12-16T01:59:01.974Z,100.00
2022-12-16T02:01:50.481Z,100.00
2022-12-16T02:04:59.140Z,100.00
2022-12-16T02:10:44.747Z,100.00
2022-12-16T02:13:39.865Z,100.00
2022-12-16T02:16:34.321Z,100.00
2022-12-16T02:19:56.177Z,100.00
2022-12-16T02:22:54.036Z,100.00
2022-12-16T02:25:58.702Z,100.00
2022-12-16T02:29:01.073Z,100.00
2022-12-16T02:31:55.293Z,100.00
2022-12-16T02:34:50.531Z,100.00
2022-12-16T02:37:42.269Z,100.00
2022-12-16T02:40:35.624Z,100.00
2022-12-16T02:43:45.621Z,100.00
2022-12-16T02:46:35.202Z,100.00
2022-12-16T02:49:47.128Z,100.00
2022-12-16T02:52:36.188Z,100.00
2022-12-16T02:55:29.281Z,100.00
2022-12-16T02:58:20.096Z,100.00
2022-12-16T03:01:14.317Z,100.00
2022-12-16T03:04:05.795Z,100.00
2022-12-16T03:06:56.225Z,100.00
2022-12-16T03:09:45.503Z,100.00
2022-12-16T03:12:35.171Z,100.00
2022-12-16T03:15:25.454Z,100.00
2022-12-16T03:18:15.068Z,100.00
2022-12-16T03:21:06.964Z,100.00
2022-12-16T03:23:59.843Z,100.00
2022-12-16T03:26:54.053Z,100.00
2022-12-16T03:29:46.647Z,100.00
2022-12-16T03:32:39.078Z,100.00
2022-12-16T03:35:31.014Z,100.00
2022-12-16T03:38:21.721Z,100.00
2022-12-16T03:41:12.102Z,100.00
2022-12-16T03:44:00.659Z,100.00
2022-12-16T03:46:49.171Z,100.00
2022-12-16T03:49:38.172Z,100.00
2022-12-16T03:52:26.643Z,100.00
2022-12-16T03:55:15.337Z,100.00
2022-12-16T03:58:05.431Z,100.00
2022-12-16T04:00:53.969Z,100.00
2022-12-16T04:03:43.983Z,100.00
2022-12-16T04:06:32.568Z,100.00
2022-12-16T04:09:20.986Z,100.00
2022-12-16T04:12:27.085Z,100.00
2022-12-16T04:15:33.698Z,100.00
2022-12-16T04:18:39.718Z,99.48
2022-12-16T04:21:45.843Z,99.09
2022-12-16T04:24:34.595Z,99.05
2022-12-16T04:27:27.448Z,98.48
2022-12-16T04:30:21.676Z,98.25
2022-12-16T04:33:29.975Z,98.71
2022-12-16T04:36:35.983Z,98.58
2022-12-16T04:39:41.879Z,97.11
2022-12-16T04:42:48.174Z,97.48
2022-12-16T04:45:57.419Z,97.83
2022-12-16T04:49:03.360Z,98.43
2022-12-16T04:52:09.610Z,99.22
2022-12-16T04:55:15.736Z,98.58
2022-12-16T04:58:22.526Z,98.45
2022-12-16T05:01:30.062Z,98.27
2022-12-16T05:04:36.087Z,98.37
2022-12-16T05:07:42.285Z,98.58
2022-12-16T05:10:48.338Z,99.22
2022-12-16T05:13:54.381Z,99.22
2022-12-16T05:17:01.663Z,98.65
2022-12-16T05:20:07.713Z,98.53
2022-12-16T05:23:14.332Z,98.24
2022-12-16T05:26:20.386Z,97.53
2022-12-16T05:29:26.636Z,98.08
2022-12-16T05:32:33.869Z,98.57
2022-12-16T05:35:40.014Z,98.31
2022-12-16T05:38:46.014Z,98.37
2022-12-16T05:41:52.293Z,98.83
2022-12-16T05:44:58.544Z,98.98
2022-12-16T05:48:08.002Z,98.92
2022-12-16T05:51:14.128Z,98.39
2022-12-16T05:54:20.291Z,98.74
2022-12-16T05:57:26.469Z,98.65
2022-12-16T06:00:33.680Z,98.91
2022-12-16T06:03:41.296Z,99.00
2022-12-16T06:06:47.377Z,98.33
2022-12-16T06:09:56.850Z,98.06
2022-12-16T06:13:05.349Z,97.51
2022-12-16T06:16:11.480Z,97.68
2022-12-16T06:19:19.771Z,97.49
2022-12-16T06:22:25.634Z,97.25
2022-12-16T06:25:31.851Z,97.61
2022-12-16T06:28:40.928Z,98.14
2022-12-16T06:31:49.075Z,98.04
2022-12-16T06:34:58.789Z,97.96
2022-12-16T06:38:05.900Z,97.90
2022-12-16T06:41:12.126Z,97.94
2022-12-16T06:44:18.255Z,97.92
2022-12-16T06:47:24.436Z,97.64
2022-12-16T06:50:31.868Z,97.76
2022-12-16T06:53:38.095Z,98.77
2022-12-16T06:56:44.186Z,98.35
2022-12-16T06:59:50.272Z,99.13
2022-12-16T07:02:56.288Z,99.38
2022-12-16T07:06:03.516Z,98.71
2022-12-16T07:09:09.490Z,98.92
2022-12-16T07:12:15.584Z,99.11
2022-12-16T07:15:21.828Z,98.86
2022-12-16T07:18:28.119Z,98.96
2022-12-16T07:21:35.599Z,99.44
2022-12-16T07:24:41.811Z,99.37
2022-12-16T07:27:47.915Z,99.78
2022-12-16T07:30:54.104Z,99.84
2022-12-16T07:34:00.115Z,99.10
2022-12-16T07:37:07.546Z,99.50
2022-12-16T07:40:13.683Z,99.75
2022-12-16T07:43:19.656Z,99.24
2022-12-16T07:46:25.730Z,98.87
2022-12-16T07:49:31.605Z,98.35
2022-12-16T07:52:39.096Z,98.29
2022-12-16T07:55:45.236Z,97.49
2022-12-16T07:58:56.736Z,97.13
2022-12-16T08:02:02.980Z,97.10
2022-12-16T08:05:08.983Z,96.75
2022-12-16T08:08:12.750Z,96.38
2022-12-16T08:11:19.053Z,95.96
2022-12-16T08:14:24.932Z,96.65
2022-12-16T08:17:30.663Z,97.17
2022-12-16T08:20:36.569Z,97.66
2022-12-16T08:23:43.954Z,97.67
2022-12-16T08:26:49.942Z,97.46
2022-12-16T08:29:57.134Z,97.34
2022-12-16T08:33:13.485Z,97.34
2022-12-16T08:36:25.435Z,97.47
2022-12-16T08:39:32.768Z,98.20
2022-12-16T08:42:38.872Z,98.28
2022-12-16T08:45:45.135Z,98.62
2022-12-16T08:48:51.442Z,98.43
2022-12-16T08:51:57.421Z,97.86
2022-12-16T08:55:04.873Z,98.17
2022-12-16T08:58:10.625Z,97.53
2022-12-16T09:01:16.888Z,95.14
2022-12-16T09:04:22.787Z,93.52
2022-12-16T09:07:28.916Z,91.41
2022-12-16T09:10:40.423Z,90.67
2022-12-16T09:13:46.914Z,90.63
2022-12-16T09:16:52.948Z,91.47
2022-12-16T09:19:59.447Z,92.45
2022-12-16T09:23:05.407Z,93.25
2022-12-16T09:26:12.734Z,93.58
2022-12-16T09:29:18.569Z,93.66
2022-12-16T09:32:24.535Z,93.13
2022-12-16T09:35:30.741Z,95.16
2022-12-16T09:38:36.910Z,94.30
2022-12-16T09:41:55.585Z,93.20
2022-12-16T09:45:09.926Z,92.94
2022-12-16T09:48:23.202Z,92.92
2022-12-16T09:51:38.702Z,91.98
2022-12-16T09:54:46.975Z,91.71
2022-12-16T09:57:55.567Z,90.97
2022-12-16T10:01:01.871Z,90.16
2022-12-16T10:04:08.278Z,89.53
2022-12-16T10:07:17.806Z,89.51
2022-12-16T10:10:35.614Z,90.01
2022-12-16T10:13:50.526Z,89.34
2022-12-16T10:17:03.473Z,88.64
2022-12-16T10:20:13.998Z,88.03
2022-12-16T10:23:23.781Z,88.07
2022-12-16T10:26:34.838Z,88.20
2022-12-16T10:29:46.249Z,87.76
2022-12-16T10:32:56.976Z,88.14
2022-12-16T10:36:06.190Z,88.55
2022-12-16T10:39:16.806Z,89.16
2022-12-16T10:42:23.836Z,89.65
2022-12-16T10:45:38.048Z,90.24
2022-12-16T10:48:56.296Z,90.20
2022-12-16T10:52:06.891Z,88.06
2022-12-16T10:55:21.320Z,86.08
2022-12-16T10:58:36.818Z,85.54
2022-12-16T11:01:46.054Z,84.42
2022-12-16T11:04:55.557Z,84.03
2022-12-16T11:08:11.787Z,85.41
2022-12-16T11:11:31.572Z,85.28
2022-12-16T11:14:50.296Z,84.63
2022-12-16T11:18:23.122Z,84.73
2022-12-16T11:21:32.342Z,84.79
2022-12-16T11:24:39.357Z,85.55
2022-12-16T11:27:45.954Z,85.06
2022-12-16T11:30:52.217Z,84.67
2022-12-16T11:34:00.948Z,84.69
2022-12-16T11:37:09.367Z,85.02
2022-12-16T11:40:17.162Z,85.36
2022-12-16T11:43:24.024Z,84.75
2022-12-16T11:46:43.845Z,84.52
2022-12-16T11:49:52.241Z,84.64
2022-12-16T11:52:58.812Z,83.69
2022-12-16T11:56:13.924Z,82.50
2022-12-16T11:59:26.898Z,83.07
2022-12-16T12:02:35.807Z,83.16
2022-12-16T12:05:47.310Z,83.49
2022-12-16T12:08:57.793Z,82.34
2022-12-16T12:12:10.042Z,83.02
2022-12-16T12:15:20.251Z,81.79
2022-12-16T12:18:34.666Z,81.92
2022-12-16T12:21:43.870Z,82.46
2022-12-16T12:24:57.947Z,82.16
2022-12-16T12:28:12.262Z,82.06
2022-12-16T12:31:22.448Z,82.12
2022-12-16T12:34:32.958Z,80.32
2022-12-16T12:37:44.931Z,79.93
2022-12-16T12:40:59.931Z,79.21
2022-12-16T12:44:14.182Z,79.30
2022-12-16T12:47:23.514Z,80.13
2022-12-16T12:50:32.599Z,80.37
2022-12-16T12:53:46.963Z,80.28
2022-12-16T12:57:01.400Z,79.11
2022-12-16T13:00:13.164Z,79.37
2022-12-16T13:03:23.678Z,78.77
2022-12-16T13:06:32.449Z,78.55
2022-12-16T13:09:45.243Z,78.60
2022-12-16T13:12:52.392Z,78.33
2022-12-16T13:15:58.656Z,78.02
2022-12-16T13:19:08.047Z,78.49
2022-12-16T13:22:15.495Z,78.80
2022-12-16T13:25:54.795Z,79.35
2022-12-16T13:29:01.541Z,79.28
2022-12-16T13:32:19.178Z,78.99
2022-12-16T13:35:35.950Z,77.21
2022-12-16T13:38:42.159Z,77.70
2022-12-16T13:42:10.291Z,77.45
2022-12-16T13:45:17.383Z,77.83
2022-12-16T13:48:35.190Z,77.43
2022-12-16T13:52:15.652Z,78.96
2022-12-16T13:55:32.204Z,78.46
2022-12-16T13:58:56.938Z,78.56
2022-12-16T14:02:08.789Z,79.86
2022-12-16T14:05:15.328Z,79.04
2022-12-16T14:08:23.047Z,79.34
2022-12-16T14:11:36.028Z,79.03
2022-12-16T14:14:45.902Z,78.82
2022-12-16T14:17:56.563Z,79.30
2022-12-16T14:21:03.910Z,78.89
2022-12-16T14:24:12.513Z,79.31
2022-12-16T14:27:24.274Z,79.06
2022-12-16T14:30:36.856Z,78.73
2022-12-16T14:33:44.577Z,78.98
2022-12-16T14:37:12.059Z,79.02
2022-12-16T14:40:18.034Z,78.73
2022-12-16T14:43:30.989Z,78.89
2022-12-16T14:46:45.179Z,78.87
2022-12-16T14:49:52.085Z,78.83
2022-12-16T14:52:58.482Z,78.99
2022-12-16T14:56:04.469Z,79.47
2022-12-16T14:59:25.684Z,79.12
2022-12-16T15:02:49.719Z,79.71
2022-12-16T15:05:56.925Z,80.25
2022-12-16T15:09:07.246Z,80.67
2022-12-16T15:12:13.928Z,81.41
2022-12-16T15:15:23.238Z,81.36
2022-12-16T15:18:34.590Z,81.50
2022-12-16T15:21:40.575Z,81.78
2022-12-16T15:24:47.481Z,82.13
2022-12-16T15:27:54.513Z,82.38
2022-12-16T15:31:02.643Z,82.36
2022-12-16T15:34:40.061Z,82.96
2022-12-16T15:37:49.632Z,83.10
2022-12-16T15:40:57.753Z,83.59
2022-12-16T15:44:04.904Z,83.55
2022-12-16T15:47:10.961Z,83.43
2022-12-16T15:50:21.353Z,83.70
2022-12-16T15:53:34.839Z,84.30
2022-12-16T15:56:42.372Z,84.40
2022-12-16T15:59:49.653Z,83.94
2022-12-16T16:02:55.689Z,84.44
2022-12-16T16:06:03.305Z,84.50
2022-12-16T16:09:10.040Z,85.13
2022-12-16T16:12:16.225Z,85.61
2022-12-16T16:15:24.539Z,85.78
2022-12-16T16:18:30.652Z,85.65
2022-12-16T16:21:38.662Z,85.80
2022-12-16T16:24:45.061Z,85.82
2022-12-16T16:27:51.335Z,86.23
2022-12-16T16:30:59.729Z,86.11
2022-12-16T16:34:05.790Z,85.13
2022-12-16T16:37:14.660Z,85.52
2022-12-16T16:40:23.849Z,85.77
2022-12-16T16:43:30.038Z,86.15
2022-12-16T16:46:49.821Z,86.29
2022-12-16T16:49:58.895Z,86.38
2022-12-16T16:53:06.397Z,86.97
2022-12-16T16:56:18.081Z,86.89
2022-12-16T16:59:27.675Z,86.64
2022-12-16T17:02:40.826Z,87.18
2022-12-16T17:05:47.567Z,88.01
2022-12-16T17:08:55.271Z,88.24
2022-12-16T17:12:01.333Z,88.19
2022-12-16T17:15:07.466Z,88.11
2022-12-16T17:18:13.838Z,88.13
2022-12-16T17:21:20.082Z,88.57
2022-12-16T17:24:27.618Z,89.08
2022-12-16T17:27:34.913Z,88.91
2022-12-16T17:30:46.838Z,89.07
2022-12-16T17:33:53.894Z,89.24
2022-12-16T17:37:00.087Z,88.92
2022-12-16T17:40:15.909Z,89.16
2022-12-16T17:43:22.117Z,89.16
2022-12-16T17:46:29.864Z,89.44
2022-12-16T17:49:36.102Z,89.56
2022-12-16T17:52:42.194Z,89.41
2022-12-16T17:55:49.651Z,89.77
2022-12-16T17:58:56.701Z,90.02
2022-12-16T18:02:03.220Z,90.10
2022-12-16T18:05:09.235Z,90.30
2022-12-16T18:08:15.283Z,90.37
2022-12-16T18:11:22.882Z,90.27
2022-12-16T18:14:28.389Z,90.48
2022-12-16T18:17:34.526Z,90.42
2022-12-16T18:20:40.604Z,90.85
2022-12-16T18:23:48.224Z,91.20
2022-12-16T18:26:55.713Z,91.58
2022-12-16T18:30:07.442Z,91.97
2022-12-16T18:33:13.779Z,92.07
2022-12-16T18:36:19.615Z,92.05
2022-12-16T18:39:25.719Z,92.13
2022-12-16T18:42:33.313Z,92.53
2022-12-16T18:45:39.426Z,92.52
2022-12-16T18:48:45.342Z,92.75
2022-12-16T18:51:52.522Z,93.15
2022-12-16T18:54:58.742Z,93.48
2022-12-16T18:58:20.852Z,93.70
2022-12-16T19:01:32.126Z,94.16
2022-12-16T19:04:38.271Z,94.61
2022-12-16T19:07:44.413Z,95.35
2022-12-16T19:10:50.555Z,95.88
2022-12-16T19:13:58.144Z,95.71
2022-12-16T19:17:03.993Z,95.61
2022-12-16T19:20:10.126Z,95.84
2022-12-16T19:23:16.238Z,95.90
2022-12-16T19:26:22.421Z,96.08
2022-12-16T19:29:29.862Z,95.88
2022-12-16T19:32:36.285Z,96.00
2022-12-16T19:35:42.225Z,95.71
2022-12-16T19:38:50.721Z,96.26
2022-12-16T19:41:56.896Z,96.38
2022-12-16T19:45:04.014Z,96.17
2022-12-16T19:48:10.280Z,96.55
2022-12-16T19:51:16.511Z,97.42
2022-12-16T19:54:22.781Z,97.89
2022-12-16T19:57:28.980Z,98.31
2022-12-16T20:00:36.751Z,98.45
2022-12-16T20:03:42.985Z,98.17
2022-12-16T20:06:49.492Z,98.60
2022-12-16T20:09:56.094Z,98.75
2022-12-16T20:13:02.293Z,100.00
2022-12-16T20:16:09.755Z,100.00
2022-12-16T20:19:16.475Z,100.00
2022-12-16T20:22:22.599Z,100.00
2022-12-16T20:25:28.878Z,100.00
2022-12-16T20:28:35.040Z,100.00
2022-12-16T20:31:42.578Z,100.00
2022-12-16T20:34:48.821Z,100.00
2022-12-16T20:41:22.370Z,100.00
2022-12-16T20:44:28.615Z,100.00
2022-12-16T20:47:36.195Z,100.00
2022-12-16T20:50:42.375Z,100.00
2022-12-16T20:53:48.608Z,100.00
2022-12-16T20:56:54.869Z,100.00
2022-12-16T21:00:02.068Z,100.00
2022-12-16T21:03:09.361Z,100.00
2022-12-16T21:06:15.582Z,100.00
2022-12-16T21:09:21.679Z,100.00
2022-12-16T21:12:27.715Z,100.00
2022-12-16T21:15:33.831Z,100.00
2022-12-16T21:18:41.750Z,100.00
2022-12-16T21:21:47.927Z,100.00
2022-12-16T21:24:54.214Z,100.00
2022-12-16T21:28:02.218Z,100.00
2022-12-16T21:31:08.177Z,100.00
2022-12-16T21:34:15.617Z,100.00
2022-12-16T21:37:21.659Z,100.00
2022-12-16T21:40:28.634Z,100.00
2022-12-16T21:43:34.736Z,100.00
2022-12-16T21:46:40.825Z,100.00
2022-12-16T21:49:48.351Z,100.00
2022-12-16T21:52:54.429Z,100.00
2022-12-16T21:56:02.704Z,100.00
2022-12-16T21:59:20.146Z,100.00
2022-12-16T22:02:29.009Z,100.00
2022-12-16T22:05:36.457Z,100.00
2022-12-16T22:08:42.576Z,100.00
2022-12-16T22:11:48.682Z,100.00
2022-12-16T22:14:54.782Z,100.00
2022-12-16T22:18:01.952Z,100.00
2022-12-16T22:21:16.575Z,100.00
2022-12-16T22:24:22.651Z,100.00
2022-12-16T22:27:28.743Z,100.00
2022-12-16T22:30:34.902Z,100.00
2022-12-16T22:33:40.721Z,100.00
2022-12-16T22:36:21.269Z,100.00
2022-12-16T22:36:48.116Z,100.00
2022-12-16T22:39:59.437Z,100.00
2022-12-16T22:43:06.657Z,100.00
2022-12-16T22:46:20.377Z,100.00
2022-12-16T22:49:26.319Z,100.00
2022-12-16T22:52:33.572Z,100.00
2022-12-16T22:55:39.709Z,100.00
2022-12-16T22:58:45.885Z,100.00
2022-12-16T23:01:51.984Z,100.00
2022-12-16T23:04:57.357Z,100.00
2022-12-16T23:08:04.754Z,100.00
2022-12-16T23:11:13.987Z,100.00
2022-12-16T23:14:20.022Z,100.00
2022-12-16T23:17:25.295Z,100.00
2022-12-16T23:20:31.373Z,100.00
2022-12-16T23:23:39.086Z,100.00
2022-12-16T23:26:45.352Z,100.00
2022-12-16T23:29:59.803Z,100.00
2022-12-16T23:33:05.758Z,100.00
2022-12-16T23:36:11.776Z,100.00
2022-12-16T23:39:19.019Z,100.00
2022-12-16T23:42:24.929Z,100.00
2022-12-16T23:45:31.113Z,100.00
2022-12-16T23:48:37.598Z,100.00
2022-12-16T23:51:43.902Z,100.00
2022-12-16T23:54:51.485Z,100.00
2022-12-16T23:57:57.946Z,100.00
